sensor_id;sensor_type;location;lat;lon;timestamp;P1;durP1;ratioP1;P2;durP2;ratioP2
55003;SDS011;40900;52.710;6.438;2022-12-18T00:02:16;100.55;;;41.22;;
55003;SDS011;40900;52.710;6.438;2022-12-18T00:04:41;87.50;;;38.75;;
55003;SDS011;40900;52.710;6.438;2022-12-18T00:07:07;88.35;;;40.50;;
55003;SDS011;40900;52.710;6.438;2022-12-18T00:09:33;93.13;;;40.63;;
55003;SDS011;40900;52.710;6.438;2022-12-18T00:11:59;100.40;;;42.08;;
55003;SDS011;40900;52.710;6.438;2022-12-18T00:14:24;100.53;;;42.28;;
55003;SDS011;40900;52.710;6.438;2022-12-18T00:16:50;102.72;;;43.85;;
55003;SDS011;40900;52.710;6.438;2022-12-18T00:19:16;94.10;;;40.80;;
55003;SDS011;40900;52.710;6.438;2022-12-18T00:21:42;96.68;;;42.15;;
55003;SDS011;40900;52.710;6.438;2022-12-18T00:24:09;99.47;;;43.63;;
55003;SDS011;40900;52.710;6.438;2022-12-18T00:26:36;103.43;;;43.03;;
55003;SDS011;40900;52.710;6.438;2022-12-18T00:29:06;105.93;;;44.38;;
55003;SDS011;40900;52.710;6.438;2022-12-18T00:31:35;106.32;;;43.33;;
55003;SDS011;40900;52.710;6.438;2022-12-18T00:34:02;99.25;;;41.78;;
55003;SDS011;40900;52.710;6.438;2022-12-18T00:36:29;101.47;;;43.17;;
55003;SDS011;40900;52.710;6.438;2022-12-18T00:38:58;98.57;;;42.92;;
55003;SDS011;40900;52.710;6.438;2022-12-18T00:41:24;99.18;;;43.80;;
55003;SDS011;40900;52.710;6.438;2022-12-18T00:44:10;103.53;;;43.58;;
55003;SDS011;40900;52.710;6.438;2022-12-18T00:46:37;99.93;;;40.50;;
55003;SDS011;40900;52.710;6.438;2022-12-18T00:49:03;96.00;;;42.55;;
55003;SDS011;40900;52.710;6.438;2022-12-18T00:51:29;104.38;;;44.72;;
55003;SDS011;40900;52.710;6.438;2022-12-18T00:53:55;101.45;;;43.60;;
55003;SDS011;40900;52.710;6.438;2022-12-18T00:56:21;105.03;;;43.70;;
55003;SDS011;40900;52.710;6.438;2022-12-18T00:58:47;108.03;;;45.45;;
55003;SDS011;40900;52.710;6.438;2022-12-18T01:01:12;98.07;;;42.50;;
55003;SDS011;40900;52.710;6.438;2022-12-18T01:03:38;101.63;;;43.38;;
55003;SDS011;40900;52.710;6.438;2022-12-18T01:06:08;101.63;;;41.33;;
55003;SDS011;40900;52.710;6.438;2022-12-18T01:08:36;94.22;;;43.10;;
55003;SDS011;40900;52.710;6.438;2022-12-18T01:11:09;91.93;;;40.67;;
55003;SDS011;40900;52.710;6.438;2022-12-18T01:13:37;101.25;;;41.58;;
55003;SDS011;40900;52.710;6.438;2022-12-18T01:16:03;92.55;;;41.40;;
55003;SDS011;40900;52.710;6.438;2022-12-18T01:18:30;93.55;;;41.60;;
55003;SDS011;40900;52.710;6.438;2022-12-18T01:20:55;103.00;;;42.25;;
55003;SDS011;40900;52.710;6.438;2022-12-18T01:23:21;90.47;;;39.33;;
55003;SDS011;40900;52.710;6.438;2022-12-18T01:25:47;88.60;;;40.78;;
55003;SDS011;40900;52.710;6.438;2022-12-18T01:28:12;99.55;;;41.75;;
55003;SDS011;40900;52.710;6.438;2022-12-18T01:30:38;93.20;;;42.50;;
55003;SDS011;40900;52.710;6.438;2022-12-18T01:33:04;96.80;;;41.30;;
55003;SDS011;40900;52.710;6.438;2022-12-18T01:35:30;94.57;;;40.45;;
55003;SDS011;40900;52.710;6.438;2022-12-18T01:37:56;97.70;;;41.03;;
55003;SDS011;40900;52.710;6.438;2022-12-18T01:40:22;95.50;;;40.33;;
55003;SDS011;40900;52.710;6.438;2022-12-18T01:42:51;95.20;;;42.10;;
55003;SDS011;40900;52.710;6.438;2022-12-18T01:47:47;95.18;;;41.67;;
55003;SDS011;40900;52.710;6.438;2022-12-18T01:52:43;98.53;;;41.58;;
55003;SDS011;40900;52.710;6.438;2022-12-18T01:55:12;91.55;;;39.90;;
55003;SDS011;40900;52.710;6.438;2022-12-18T01:57:41;102.63;;;40.90;;
55003;SDS011;40900;52.710;6.438;2022-12-18T02:00:09;90.78;;;40.08;;
55003;SDS011;40900;52.710;6.438;2022-12-18T02:02:38;99.53;;;40.92;;
55003;SDS011;40900;52.710;6.438;2022-12-18T02:05:06;98.32;;;40.10;;
55003;SDS011;40900;52.710;6.438;2022-12-18T02:10:15;93.97;;;39.35;;
55003;SDS011;40900;52.710;6.438;2022-12-18T02:12:53;99.32;;;41.80;;
55003;SDS011;40900;52.710;6.438;2022-12-18T02:18:19;101.50;;;40.17;;
55003;SDS011;40900;52.710;6.438;2022-12-18T02:20:53;109.03;;;40.80;;
55003;SDS011;40900;52.710;6.438;2022-12-18T02:26:12;111.43;;;40.35;;
55003;SDS011;40900;52.710;6.438;2022-12-18T02:28:51;104.38;;;40.47;;
55003;SDS011;40900;52.710;6.438;2022-12-18T02:31:23;98.97;;;37.97;;
55003;SDS011;40900;52.710;6.438;2022-12-18T02:33:53;106.65;;;40.05;;
55003;SDS011;40900;52.710;6.438;2022-12-18T02:36:21;102.35;;;41.05;;
55003;SDS011;40900;52.710;6.438;2022-12-18T02:38:47;97.05;;;39.75;;
55003;SDS011;40900;52.710;6.438;2022-12-18T02:41:15;101.00;;;39.38;;
55003;SDS011;40900;52.710;6.438;2022-12-18T02:43:47;105.00;;;38.78;;
55003;SDS011;40900;52.710;6.438;2022-12-18T02:46:33;100.13;;;37.95;;
55003;SDS011;40900;52.710;6.438;2022-12-18T02:49:04;107.15;;;38.70;;
55003;SDS011;40900;52.710;6.438;2022-12-18T02:51:47;100.43;;;37.35;;
55003;SDS011;40900;52.710;6.438;2022-12-18T02:55:08;93.55;;;36.85;;
55003;SDS011;40900;52.710;6.438;2022-12-18T02:57:40;102.57;;;39.63;;
55003;SDS011;40900;52.710;6.438;2022-12-18T03:00:15;99.22;;;36.15;;
55003;SDS011;40900;52.710;6.438;2022-12-18T03:02:48;102.22;;;38.60;;
55003;SDS011;40900;52.710;6.438;2022-12-18T03:10:36;96.05;;;38.08;;
55003;SDS011;40900;52.710;6.438;2022-12-18T03:13:13;105.32;;;38.72;;
55003;SDS011;40900;52.710;6.438;2022-12-18T03:15:46;95.15;;;37.22;;
55003;SDS011;40900;52.710;6.438;2022-12-18T03:18:21;99.30;;;38.05;;
55003;SDS011;40900;52.710;6.438;2022-12-18T03:20:51;95.47;;;35.88;;
55003;SDS011;40900;52.710;6.438;2022-12-18T03:23:21;103.47;;;38.85;;
55003;SDS011;40900;52.710;6.438;2022-12-18T03:25:53;102.15;;;38.22;;
55003;SDS011;40900;52.710;6.438;2022-12-18T03:28:22;103.97;;;38.72;;
55003;SDS011;40900;52.710;6.438;2022-12-18T03:30:53;96.72;;;37.00;;
55003;SDS011;40900;52.710;6.438;2022-12-18T03:36:10;97.15;;;38.47;;
55003;SDS011;40900;52.710;6.438;2022-12-18T03:38:36;109.15;;;39.95;;
55003;SDS011;40900;52.710;6.438;2022-12-18T03:41:08;98.50;;;37.60;;
55003;SDS011;40900;52.710;6.438;2022-12-18T03:49:13;95.70;;;37.83;;
55003;SDS011;40900;52.710;6.438;2022-12-18T03:51:52;93.85;;;36.95;;
55003;SDS011;40900;52.710;6.438;2022-12-18T03:54:24;98.57;;;36.58;;
55003;SDS011;40900;52.710;6.438;2022-12-18T03:56:54;98.10;;;37.72;;
55003;SDS011;40900;52.710;6.438;2022-12-18T03:59:26;100.38;;;37.53;;
55003;SDS011;40900;52.710;6.438;2022-12-18T04:01:54;94.63;;;35.97;;
55003;SDS011;40900;52.710;6.438;2022-12-18T04:04:23;89.80;;;34.53;;
55003;SDS011;40900;52.710;6.438;2022-12-18T04:06:51;97.45;;;36.92;;
55003;SDS011;40900;52.710;6.438;2022-12-18T04:09:18;100.90;;;37.65;;
55003;SDS011;40900;52.710;6.438;2022-12-18T04:11:45;95.13;;;35.70;;
55003;SDS011;40900;52.710;6.438;2022-12-18T04:14:12;85.40;;;32.80;;
55003;SDS011;40900;52.710;6.438;2022-12-18T04:16:38;85.18;;;36.28;;
55003;SDS011;40900;52.710;6.438;2022-12-18T04:19:04;82.28;;;34.42;;
55003;SDS011;40900;52.710;6.438;2022-12-18T04:21:30;82.40;;;33.47;;
55003;SDS011;40900;52.710;6.438;2022-12-18T04:23:56;74.07;;;31.70;;
55003;SDS011;40900;52.710;6.438;2022-12-18T04:26:21;78.13;;;33.60;;
55003;SDS011;40900;52.710;6.438;2022-12-18T04:28:47;82.50;;;33.45;;
55003;SDS011;40900;52.710;6.438;2022-12-18T04:31:13;79.18;;;33.72;;
55003;SDS011;40900;52.710;6.438;2022-12-18T04:33:38;72.13;;;30.90;;
55003;SDS011;40900;52.710;6.438;2022-12-18T04:36:04;72.38;;;31.00;;
55003;SDS011;40900;52.710;6.438;2022-12-18T04:38:30;71.75;;;31.58;;
55003;SDS011;40900;52.710;6.438;2022-12-18T04:40:56;73.53;;;31.60;;
55003;SDS011;40900;52.710;6.438;2022-12-18T04:43:22;69.30;;;30.10;;
55003;SDS011;40900;52.710;6.438;2022-12-18T04:45:47;72.60;;;29.63;;
55003;SDS011;40900;52.710;6.438;2022-12-18T04:48:13;68.57;;;29.70;;
55003;SDS011;40900;52.710;6.438;2022-12-18T04:50:38;64.43;;;29.90;;
55003;SDS011;40900;52.710;6.438;2022-12-18T04:53:04;72.90;;;31.75;;
55003;SDS011;40900;52.710;6.438;2022-12-18T04:55:30;70.13;;;31.90;;
55003;SDS011;40900;52.710;6.438;2022-12-18T04:57:55;62.80;;;28.83;;
55003;SDS011;40900;52.710;6.438;2022-12-18T05:00:21;66.70;;;28.20;;
55003;SDS011;40900;52.710;6.438;2022-12-18T05:02:47;60.90;;;29.35;;
55003;SDS011;40900;52.710;6.438;2022-12-18T05:05:13;67.88;;;28.67;;
55003;SDS011;40900;52.710;6.438;2022-12-18T05:07:39;65.28;;;28.27;;
55003;SDS011;40900;52.710;6.438;2022-12-18T05:10:05;65.95;;;27.65;;
55003;SDS011;40900;52.710;6.438;2022-12-18T05:12:32;62.20;;;27.60;;
55003;SDS011;40900;52.710;6.438;2022-12-18T05:14:58;60.70;;;27.73;;
55003;SDS011;40900;52.710;6.438;2022-12-18T05:17:23;63.13;;;27.65;;
55003;SDS011;40900;52.710;6.438;2022-12-18T05:19:49;61.13;;;27.83;;
55003;SDS011;40900;52.710;6.438;2022-12-18T05:22:15;61.85;;;27.33;;
55003;SDS011;40900;52.710;6.438;2022-12-18T05:24:40;55.58;;;27.88;;
55003;SDS011;40900;52.710;6.438;2022-12-18T05:27:06;55.47;;;26.50;;
55003;SDS011;40900;52.710;6.438;2022-12-18T05:29:32;61.20;;;27.30;;
55003;SDS011;40900;52.710;6.438;2022-12-18T05:31:57;57.85;;;25.55;;
55003;SDS011;40900;52.710;6.438;2022-12-18T05:34:23;63.33;;;27.73;;
55003;SDS011;40900;52.710;6.438;2022-12-18T05:36:49;64.45;;;27.55;;
55003;SDS011;40900;52.710;6.438;2022-12-18T05:39:14;63.13;;;26.98;;
55003;SDS011;40900;52.710;6.438;2022-12-18T05:41:40;57.38;;;27.02;;
55003;SDS011;40900;52.710;6.438;2022-12-18T05:44:06;59.17;;;24.90;;
55003;SDS011;40900;52.710;6.438;2022-12-18T05:46:31;65.47;;;26.45;;
55003;SDS011;40900;52.710;6.438;2022-12-18T05:49:00;56.45;;;26.42;;
55003;SDS011;40900;52.710;6.438;2022-12-18T05:51:26;54.13;;;25.58;;
55003;SDS011;40900;52.710;6.438;2022-12-18T05:53:52;51.58;;;25.65;;
55003;SDS011;40900;52.710;6.438;2022-12-18T05:56:19;55.75;;;25.92;;
55003;SDS011;40900;52.710;6.438;2022-12-18T05:58:46;52.30;;;24.88;;
55003;SDS011;40900;52.710;6.438;2022-12-18T06:01:23;54.55;;;25.13;;
55003;SDS011;40900;52.710;6.438;2022-12-18T06:03:51;48.88;;;23.83;;
55003;SDS011;40900;52.710;6.438;2022-12-18T06:06:18;51.95;;;24.98;;
55003;SDS011;40900;52.710;6.438;2022-12-18T06:08:46;51.88;;;24.38;;
55003;SDS011;40900;52.710;6.438;2022-12-18T06:11:12;55.67;;;25.35;;
55003;SDS011;40900;52.710;6.438;2022-12-18T06:13:38;55.72;;;24.30;;
55003;SDS011;40900;52.710;6.438;2022-12-18T06:16:04;52.00;;;25.17;;
55003;SDS011;40900;52.710;6.438;2022-12-18T06:18:31;53.10;;;26.08;;
55003;SDS011;40900;52.710;6.438;2022-12-18T06:20:57;50.75;;;23.42;;
55003;SDS011;40900;52.710;6.438;2022-12-18T06:23:24;56.53;;;25.45;;
55003;SDS011;40900;52.710;6.438;2022-12-18T06:25:50;51.83;;;23.38;;
55003;SDS011;40900;52.710;6.438;2022-12-18T06:28:16;53.15;;;23.50;;
55003;SDS011;40900;52.710;6.438;2022-12-18T06:30:43;58.25;;;24.58;;
55003;SDS011;40900;52.710;6.438;2022-12-18T06:33:10;50.42;;;24.45;;
55003;SDS011;40900;52.710;6.438;2022-12-18T06:35:35;53.72;;;24.08;;
55003;SDS011;40900;52.710;6.438;2022-12-18T06:38:02;57.28;;;24.73;;
55003;SDS011;40900;52.710;6.438;2022-12-18T06:40:28;45.95;;;22.65;;
55003;SDS011;40900;52.710;6.438;2022-12-18T06:42:54;48.47;;;23.02;;
55003;SDS011;40900;52.710;6.438;2022-12-18T06:45:20;46.85;;;23.85;;
55003;SDS011;40900;52.710;6.438;2022-12-18T06:47:46;50.80;;;23.40;;
55003;SDS011;40900;52.710;6.438;2022-12-18T06:50:12;46.83;;;22.42;;
55003;SDS011;40900;52.710;6.438;2022-12-18T06:52:38;46.33;;;23.13;;
55003;SDS011;40900;52.710;6.438;2022-12-18T06:55:06;42.80;;;21.48;;
55003;SDS011;40900;52.710;6.438;2022-12-18T06:57:33;43.83;;;23.00;;
55003;SDS011;40900;52.710;6.438;2022-12-18T06:59:58;54.42;;;23.15;;
55003;SDS011;40900;52.710;6.438;2022-12-18T07:02:24;48.30;;;22.85;;
55003;SDS011;40900;52.710;6.438;2022-12-18T07:04:50;47.42;;;21.80;;
55003;SDS011;40900;52.710;6.438;2022-12-18T07:07:16;42.95;;;20.95;;
55003;SDS011;40900;52.710;6.438;2022-12-18T07:09:42;40.05;;;20.83;;
55003;SDS011;40900;52.710;6.438;2022-12-18T07:12:07;40.85;;;21.15;;
55003;SDS011;40900;52.710;6.438;2022-12-18T07:14:33;40.60;;;20.55;;
55003;SDS011;40900;52.710;6.438;2022-12-18T07:16:59;44.42;;;21.50;;
55003;SDS011;40900;52.710;6.438;2022-12-18T07:19:24;41.85;;;19.45;;
55003;SDS011;40900;52.710;6.438;2022-12-18T07:21:50;40.65;;;18.75;;
55003;SDS011;40900;52.710;6.438;2022-12-18T07:24:16;46.85;;;22.48;;
55003;SDS011;40900;52.710;6.438;2022-12-18T07:26:42;35.22;;;19.90;;
55003;SDS011;40900;52.710;6.438;2022-12-18T07:29:11;43.35;;;21.65;;
55003;SDS011;40900;52.710;6.438;2022-12-18T07:31:36;39.35;;;20.80;;
55003;SDS011;40900;52.710;6.438;2022-12-18T07:34:02;42.25;;;21.27;;
55003;SDS011;40900;52.710;6.438;2022-12-18T07:36:28;40.85;;;22.83;;
55003;SDS011;40900;52.710;6.438;2022-12-18T07:38:53;44.03;;;20.95;;
55003;SDS011;40900;52.710;6.438;2022-12-18T07:41:20;36.65;;;21.30;;
55003;SDS011;40900;52.710;6.438;2022-12-18T07:43:46;42.15;;;20.88;;
55003;SDS011;40900;52.710;6.438;2022-12-18T07:46:12;40.25;;;20.70;;
55003;SDS011;40900;52.710;6.438;2022-12-18T07:48:40;36.88;;;21.10;;
55003;SDS011;40900;52.710;6.438;2022-12-18T07:51:06;35.08;;;19.48;;
55003;SDS011;40900;52.710;6.438;2022-12-18T07:53:33;37.25;;;19.98;;
55003;SDS011;40900;52.710;6.438;2022-12-18T07:56:00;41.90;;;20.45;;
55003;SDS011;40900;52.710;6.438;2022-12-18T07:58:28;37.05;;;19.52;;
55003;SDS011;40900;52.710;6.438;2022-12-18T08:01:01;36.05;;;19.10;;
55003;SDS011;40900;52.710;6.438;2022-12-18T08:03:31;35.60;;;19.73;;
55003;SDS011;40900;52.710;6.438;2022-12-18T08:06:00;34.72;;;18.92;;
55003;SDS011;40900;52.710;6.438;2022-12-18T08:08:28;32.13;;;17.38;;
55003;SDS011;40900;52.710;6.438;2022-12-18T08:10:54;37.95;;;19.02;;
55003;SDS011;40900;52.710;6.438;2022-12-18T08:13:20;31.98;;;18.23;;
55003;SDS011;40900;52.710;6.438;2022-12-18T08:15:46;31.05;;;17.25;;
55003;SDS011;40900;52.710;6.438;2022-12-18T08:18:11;37.45;;;19.15;;
55003;SDS011;40900;52.710;6.438;2022-12-18T08:20:37;35.17;;;17.90;;
55003;SDS011;40900;52.710;6.438;2022-12-18T08:23:03;34.55;;;18.88;;
55003;SDS011;40900;52.710;6.438;2022-12-18T08:25:28;40.15;;;18.60;;
55003;SDS011;40900;52.710;6.438;2022-12-18T08:27:54;36.08;;;19.00;;
55003;SDS011;40900;52.710;6.438;2022-12-18T08:30:21;35.65;;;18.83;;
55003;SDS011;40900;52.710;6.438;2022-12-18T08:32:49;38.90;;;18.25;;
55003;SDS011;40900;52.710;6.438;2022-12-18T08:35:18;35.53;;;19.52;;
55003;SDS011;40900;52.710;6.438;2022-12-18T08:37:43;32.50;;;17.45;;
55003;SDS011;40900;52.710;6.438;2022-12-18T08:40:09;31.05;;;17.48;;
55003;SDS011;40900;52.710;6.438;2022-12-18T08:42:35;33.72;;;18.25;;
55003;SDS011;40900;52.710;6.438;2022-12-18T08:45:19;30.35;;;17.58;;
55003;SDS011;40900;52.710;6.438;2022-12-18T08:47:45;31.10;;;17.17;;
55003;SDS011;40900;52.710;6.438;2022-12-18T08:50:10;35.92;;;17.63;;
55003;SDS011;40900;52.710;6.438;2022-12-18T08:52:37;33.75;;;18.05;;
55003;SDS011;40900;52.710;6.438;2022-12-18T08:55:03;32.25;;;17.90;;
55003;SDS011;40900;52.710;6.438;2022-12-18T08:57:29;33.35;;;17.40;;
55003;SDS011;40900;52.710;6.438;2022-12-18T08:59:55;29.80;;;17.75;;
55003;SDS011;40900;52.710;6.438;2022-12-18T09:02:20;34.90;;;17.75;;
55003;SDS011;40900;52.710;6.438;2022-12-18T09:04:46;32.85;;;17.60;;
55003;SDS011;40900;52.710;6.438;2022-12-18T09:07:12;29.50;;;16.58;;
55003;SDS011;40900;52.710;6.438;2022-12-18T09:09:38;30.98;;;16.20;;
55003;SDS011;40900;52.710;6.438;2022-12-18T09:12:04;31.25;;;17.00;;
55003;SDS011;40900;52.710;6.438;2022-12-18T09:14:29;31.30;;;18.10;;
55003;SDS011;40900;52.710;6.438;2022-12-18T09:16:55;29.77;;;16.20;;
55003;SDS011;40900;52.710;6.438;2022-12-18T09:19:21;30.08;;;16.05;;
55003;SDS011;40900;52.710;6.438;2022-12-18T09:21:46;27.33;;;16.00;;
55003;SDS011;40900;52.710;6.438;2022-12-18T09:24:12;27.20;;;16.10;;
55003;SDS011;40900;52.710;6.438;2022-12-18T09:26:39;26.52;;;15.57;;
55003;SDS011;40900;52.710;6.438;2022-12-18T09:29:05;29.20;;;15.85;;
55003;SDS011;40900;52.710;6.438;2022-12-18T09:31:32;23.92;;;14.75;;
55003;SDS011;40900;52.710;6.438;2022-12-18T09:33:58;29.40;;;14.57;;
55003;SDS011;40900;52.710;6.438;2022-12-18T09:36:24;28.08;;;15.35;;
55003;SDS011;40900;52.710;6.438;2022-12-18T09:38:50;26.48;;;15.35;;
55003;SDS011;40900;52.710;6.438;2022-12-18T09:41:58;24.50;;;14.63;;
55003;SDS011;40900;52.710;6.438;2022-12-18T09:44:17;22.30;;;13.65;;
55003;SDS011;40900;52.710;6.438;2022-12-18T09:49:26;26.92;;;15.02;;
55003;SDS011;40900;52.710;6.438;2022-12-18T09:54:35;23.27;;;13.53;;
55003;SDS011;40900;52.710;6.438;2022-12-18T09:57:04;20.13;;;13.07;;
55003;SDS011;40900;52.710;6.438;2022-12-18T09:59:34;21.38;;;13.15;;
55003;SDS011;40900;52.710;6.438;2022-12-18T10:02:22;22.48;;;14.13;;
55003;SDS011;40900;52.710;6.438;2022-12-18T10:07:55;23.00;;;14.18;;
55003;SDS011;40900;52.710;6.438;2022-12-18T10:10:45;23.10;;;14.07;;
55003;SDS011;40900;52.710;6.438;2022-12-18T10:21:13;21.90;;;14.07;;
55003;SDS011;40900;52.710;6.438;2022-12-18T10:23:49;20.35;;;12.68;;
55003;SDS011;40900;52.710;6.438;2022-12-18T10:26:23;24.05;;;13.00;;
55003;SDS011;40900;52.710;6.438;2022-12-18T10:28:50;22.58;;;13.85;;
55003;SDS011;40900;52.710;6.438;2022-12-18T10:31:19;23.52;;;13.80;;
55003;SDS011;40900;52.710;6.438;2022-12-18T10:33:46;24.58;;;13.82;;
55003;SDS011;40900;52.710;6.438;2022-12-18T10:36:12;22.67;;;13.63;;
55003;SDS011;40900;52.710;6.438;2022-12-18T10:38:38;21.38;;;12.90;;
55003;SDS011;40900;52.710;6.438;2022-12-18T10:41:06;23.48;;;13.65;;
55003;SDS011;40900;52.710;6.438;2022-12-18T10:43:47;23.90;;;13.85;;
55003;SDS011;40900;52.710;6.438;2022-12-18T10:46:16;21.05;;;12.45;;
55003;SDS011;40900;52.710;6.438;2022-12-18T10:56:27;18.45;;;11.80;;
55003;SDS011;40900;52.710;6.438;2022-12-18T10:58:59;18.10;;;11.23;;
55003;SDS011;40900;52.710;6.438;2022-12-18T11:06:57;16.90;;;10.52;;
55003;SDS011;40900;52.710;6.438;2022-12-18T11:09:31;21.15;;;11.60;;
55003;SDS011;40900;52.710;6.438;2022-12-18T11:12:02;21.60;;;11.38;;
55003;SDS011;40900;52.710;6.438;2022-12-18T11:14:34;20.67;;;11.25;;
55003;SDS011;40900;52.710;6.438;2022-12-18T11:17:29;17.20;;;10.65;;
55003;SDS011;40900;52.710;6.438;2022-12-18T11:20:00;19.38;;;11.23;;
55003;SDS011;40900;52.710;6.438;2022-12-18T11:22:29;18.83;;;10.90;;
55003;SDS011;40900;52.710;6.438;2022-12-18T11:24:58;16.05;;;9.80;;
55003;SDS011;40900;52.710;6.438;2022-12-18T11:27:26;23.08;;;12.10;;
55003;SDS011;40900;52.710;6.438;2022-12-18T11:30:06;18.80;;;11.48;;
55003;SDS011;40900;52.710;6.438;2022-12-18T11:32:45;18.73;;;10.85;;
55003;SDS011;40900;52.710;6.438;2022-12-18T11:35:19;15.93;;;10.10;;
55003;SDS011;40900;52.710;6.438;2022-12-18T11:37:59;17.35;;;10.35;;
55003;SDS011;40900;52.710;6.438;2022-12-18T11:40:36;19.52;;;10.35;;
55003;SDS011;40900;52.710;6.438;2022-12-18T11:43:19;14.15;;;9.20;;
55003;SDS011;40900;52.710;6.438;2022-12-18T11:45:52;14.35;;;8.38;;
55003;SDS011;40900;52.710;6.438;2022-12-18T11:50:53;14.98;;;9.30;;
55003;SDS011;40900;52.710;6.438;2022-12-18T11:53:21;19.40;;;8.90;;
55003;SDS011;40900;52.710;6.438;2022-12-18T11:58:34;14.90;;;9.10;;
55003;SDS011;40900;52.710;6.438;2022-12-18T12:06:40;14.82;;;8.65;;
55003;SDS011;40900;52.710;6.438;2022-12-18T12:09:46;13.32;;;8.02;;
55003;SDS011;40900;52.710;6.438;2022-12-18T12:18:02;17.33;;;9.95;;
55003;SDS011;40900;52.710;6.438;2022-12-18T12:31:33;13.82;;;7.97;;
55003;SDS011;40900;52.710;6.438;2022-12-18T12:36:54;13.48;;;7.20;;
55003;SDS011;40900;52.710;6.438;2022-12-18T12:39:39;10.57;;;6.75;;
55003;SDS011;40900;52.710;6.438;2022-12-18T12:42:18;9.65;;;6.57;;
55003;SDS011;40900;52.710;6.438;2022-12-18T12:45:14;11.73;;;7.35;;
55003;SDS011;40900;52.710;6.438;2022-12-18T12:47:45;9.18;;;6.30;;
55003;SDS011;40900;52.710;6.438;2022-12-18T12:50:14;11.50;;;6.65;;
55003;SDS011;40900;52.710;6.438;2022-12-18T12:52:47;11.82;;;6.47;;
55003;SDS011;40900;52.710;6.438;2022-12-18T12:55:18;11.10;;;6.57;;
55003;SDS011;40900;52.710;6.438;2022-12-18T13:00:33;11.05;;;6.70;;
55003;SDS011;40900;52.710;6.438;2022-12-18T13:05:41;13.70;;;6.15;;
55003;SDS011;40900;52.710;6.438;2022-12-18T13:08:22;12.00;;;6.78;;
55003;SDS011;40900;52.710;6.438;2022-12-18T13:10:52;10.57;;;7.10;;
55003;SDS011;40900;52.710;6.438;2022-12-18T13:13:49;10.23;;;6.70;;
55003;SDS011;40900;52.710;6.438;2022-12-18T13:16:21;11.40;;;6.85;;
55003;SDS011;40900;52.710;6.438;2022-12-18T13:18:52;9.80;;;6.60;;
55003;SDS011;40900;52.710;6.438;2022-12-18T13:21:32;10.45;;;6.55;;
55003;SDS011;40900;52.710;6.438;2022-12-18T13:24:43;10.13;;;6.40;;
55003;SDS011;40900;52.710;6.438;2022-12-18T13:26:51;12.18;;;6.18;;
55003;SDS011;40900;52.710;6.438;2022-12-18T13:32:02;11.88;;;6.18;;
55003;SDS011;40900;52.710;6.438;2022-12-18T13:34:29;9.95;;;6.18;;
55003;SDS011;40900;52.710;6.438;2022-12-18T13:40:00;10.07;;;6.60;;
55003;SDS011;40900;52.710;6.438;2022-12-18T13:45:34;12.55;;;6.38;;
55003;SDS011;40900;52.710;6.438;2022-12-18T13:48:03;12.20;;;6.18;;
55003;SDS011;40900;52.710;6.438;2022-12-18T13:50:29;9.35;;;6.22;;
55003;SDS011;40900;52.710;6.438;2022-12-18T13:52:55;13.32;;;8.30;;
55003;SDS011;40900;52.710;6.438;2022-12-18T13:55:22;10.15;;;6.43;;
55003;SDS011;40900;52.710;6.438;2022-12-18T13:57:48;10.65;;;6.60;;
55003;SDS011;40900;52.710;6.438;2022-12-18T14:02:56;11.15;;;6.38;;
55003;SDS011;40900;52.710;6.438;2022-12-18T14:07:49;10.75;;;6.22;;
55003;SDS011;40900;52.710;6.438;2022-12-18T14:10:16;10.00;;;6.60;;
55003;SDS011;40900;52.710;6.438;2022-12-18T14:12:44;13.38;;;6.65;;
55003;SDS011;40900;52.710;6.438;2022-12-18T14:17:57;10.68;;;6.63;;
55003;SDS011;40900;52.710;6.438;2022-12-18T14:20:45;9.38;;;6.25;;
55003;SDS011;40900;52.710;6.438;2022-12-18T14:26:29;9.95;;;6.18;;
55003;SDS011;40900;52.710;6.438;2022-12-18T14:28:59;10.32;;;6.28;;
55003;SDS011;40900;52.710;6.438;2022-12-18T14:31:27;10.27;;;6.40;;
55003;SDS011;40900;52.710;6.438;2022-12-18T14:33:54;8.70;;;5.88;;
55003;SDS011;40900;52.710;6.438;2022-12-18T14:36:21;13.48;;;6.60;;
55003;SDS011;40900;52.710;6.438;2022-12-18T14:38:55;11.07;;;6.65;;
55003;SDS011;40900;52.710;6.438;2022-12-18T14:41:23;10.30;;;6.72;;
55003;SDS011;40900;52.710;6.438;2022-12-18T14:43:50;11.50;;;6.80;;
55003;SDS011;40900;52.710;6.438;2022-12-18T14:46:34;9.88;;;6.75;;
55003;SDS011;40900;52.710;6.438;2022-12-18T14:49:05;11.38;;;7.28;;
55003;SDS011;40900;52.710;6.438;2022-12-18T14:51:56;11.10;;;7.07;;
55003;SDS011;40900;52.710;6.438;2022-12-18T14:54:24;11.05;;;7.13;;
55003;SDS011;40900;52.710;6.438;2022-12-18T14:57:04;11.02;;;6.65;;
55003;SDS011;40900;52.710;6.438;2022-12-18T14:59:30;10.52;;;6.50;;
55003;SDS011;40900;52.710;6.438;2022-12-18T15:04:38;9.90;;;6.70;;
55003;SDS011;40900;52.710;6.438;2022-12-18T15:07:18;12.73;;;7.68;;
55003;SDS011;40900;52.710;6.438;2022-12-18T15:12:37;12.25;;;8.02;;
55003;SDS011;40900;52.710;6.438;2022-12-18T15:15:05;15.55;;;9.15;;
55003;SDS011;40900;52.710;6.438;2022-12-18T15:20:58;14.20;;;8.77;;
55003;SDS011;40900;52.710;6.438;2022-12-18T15:23:46;14.40;;;8.45;;
55003;SDS011;40900;52.710;6.438;2022-12-18T15:26:15;15.88;;;9.02;;
55003;SDS011;40900;52.710;6.438;2022-12-18T15:28:49;15.85;;;8.20;;
55003;SDS011;40900;52.710;6.438;2022-12-18T15:36:19;14.80;;;7.70;;
55003;SDS011;40900;52.710;6.438;2022-12-18T15:38:50;15.48;;;8.60;;
55003;SDS011;40900;52.710;6.438;2022-12-18T15:41:18;14.43;;;8.45;;
55003;SDS011;40900;52.710;6.438;2022-12-18T15:43:46;17.13;;;8.27;;
55003;SDS011;40900;52.710;6.438;2022-12-18T15:46:15;14.40;;;8.60;;
55003;SDS011;40900;52.710;6.438;2022-12-18T15:48:43;14.05;;;8.80;;
55003;SDS011;40900;52.710;6.438;2022-12-18T15:53:41;15.43;;;9.07;;
55003;SDS011;40900;52.710;6.438;2022-12-18T15:56:11;14.85;;;9.88;;
55003;SDS011;40900;52.710;6.438;2022-12-18T15:58:56;15.57;;;9.95;;
55003;SDS011;40900;52.710;6.438;2022-12-18T16:01:23;17.23;;;9.60;;
55003;SDS011;40900;52.710;6.438;2022-12-18T16:03:50;19.38;;;9.98;;
55003;SDS011;40900;52.710;6.438;2022-12-18T16:06:16;14.90;;;10.07;;
55003;SDS011;40900;52.710;6.438;2022-12-18T16:08:41;14.75;;;9.90;;
55003;SDS011;40900;52.710;6.438;2022-12-18T16:16:31;16.77;;;9.98;;
55003;SDS011;40900;52.710;6.438;2022-12-18T16:18:57;17.40;;;9.70;;
55003;SDS011;40900;52.710;6.438;2022-12-18T16:21:22;17.25;;;9.60;;
55003;SDS011;40900;52.710;6.438;2022-12-18T16:23:48;15.23;;;10.23;;
55003;SDS011;40900;52.710;6.438;2022-12-18T16:26:14;17.05;;;10.27;;
55003;SDS011;40900;52.710;6.438;2022-12-18T16:28:39;17.58;;;10.45;;
55003;SDS011;40900;52.710;6.438;2022-12-18T16:31:05;20.33;;;10.75;;
55003;SDS011;40900;52.710;6.438;2022-12-18T16:33:31;16.02;;;10.13;;
55003;SDS011;40900;52.710;6.438;2022-12-18T16:35:56;15.00;;;9.57;;
55003;SDS011;40900;52.710;6.438;2022-12-18T16:38:22;14.05;;;9.65;;
55003;SDS011;40900;52.710;6.438;2022-12-18T16:40:48;17.25;;;10.13;;
55003;SDS011;40900;52.710;6.438;2022-12-18T16:43:32;17.73;;;10.30;;
55003;SDS011;40900;52.710;6.438;2022-12-18T16:45:58;14.88;;;9.68;;
55003;SDS011;40900;52.710;6.438;2022-12-18T16:48:24;15.93;;;10.73;;
55003;SDS011;40900;52.710;6.438;2022-12-18T16:50:50;17.35;;;10.77;;